Wetterdaten: Woche 12.07.10 - 18.07.10 (KW28)
Datum Zeit Temp. Innen Temp. Aussen UV X Diff Temp. Feuchte Inne Feuchte Auss Sonnenschein Luftdruck Regen ab 0,1 Wind Sonnenschein Windben
12.07.2010 00:00 28,8 C 24,7 C 0,0 UV-I 0,0 C 58 % 71 % 0 % 1020,0 hPa 0,0 l/m 9,1 km/h (2 Bft) 0,00 h 9,9 km/h (2 Bft)
12.07.2010 01:00 28,5 C 23,8 C 0,0 UV-I 0,0 C 58 % 74 % 0 % 1019,9 hPa 0,0 l/m 6,9 km/h (2 Bft) 0,00 h 6,4 km/h (2 Bft)
12.07.2010 02:00 28,2 C 23,2 C 0,0 UV-I 0,0 C 58 % 76 % 0 % 1019,5 hPa 0,0 l/m 2,4 km/h (1 Bft) 0,00 h 2,8 km/h (1 Bft)
12.07.2010 03:00 28,0 C 22,5 C 0,0 UV-I 0,0 C 59 % 79 % 0 % 1018,9 hPa 0,0 l/m 0,7 km/h (0 Bft) 0,00 h 0,8 km/h (0 Bft)
12.07.2010 04:00 27,9 C 22,0 C 0,0 UV-I 0,0 C 59 % 81 % 0 % 1017,9 hPa 0,0 l/m 0,4 km/h (0 Bft) 0,00 h 0,7 km/h (0 Bft)
12.07.2010 05:00 27,7 C 21,3 C 0,0 UV-I 0,0 C 59 % 84 % 0 % 1017,5 hPa 0,0 l/m 0,0 km/h (0 Bft) 0,00 h 0,0 km/h (0 Bft)
12.07.2010 06:00 27,5 C 21,0 C 0,1 UV-I 0,0 C 60 % 86 % 0 % 1017,0 hPa 0,0 l/m 0,0 km/h (0 Bft) 0,00 h 0,1 km/h (0 Bft)
12.07.2010 07:00 27,5 C 22,0 C 0,6 UV-I 0,4 C 60 % 85 % 10 % 1016,3 hPa 0,0 l/m 1,4 km/h (1 Bft) 0,00 h 2,3 km/h (1 Bft)
12.07.2010 08:00 27,6 C 23,8 C 2,7 UV-I 2,8 C 60 % 80 % 68 % 1015,6 hPa 0,0 l/m 4,9 km/h (1 Bft) 0,53 h 6,3 km/h (2 Bft)
12.07.2010 09:00 27,8 C 26,6 C 8,2 UV-I 4,8 C 61 % 73 % 100 % 1015,5 hPa 0,0 l/m 7,0 km/h (2 Bft) 0,93 h 9,3 km/h (2 Bft)
12.07.2010 10:00 28,2 C 29,4 C 10,3 UV-I 4,2 C 61 % 64 % 100 % 1015,7 hPa 0,0 l/m 7,1 km/h (2 Bft) 1,00 h 7,5 km/h (2 Bft)
12.07.2010 11:00 28,5 C 31,7 C 10,5 UV-I 4,0 C 61 % 55 % 92 % 1015,0 hPa 0,0 l/m 11,4 km/h (2 Bft) 0,77 h 15,6 km/h (3 Bft)
12.07.2010 12:00 28,0 C 21,9 C 0,4 UV-I 0,0 C 59 % 78 % 1 % 1016,2 hPa 1,2 l/m 14,6 km/h (3 Bft) 0,00 h 14,5 km/h (3 Bft)
12.07.2010 13:00 27,2 C 20,5 C 2,2 UV-I 0,9 C 61 % 86 % 24 % 1016,5 hPa 0,0 l/m 2,5 km/h (1 Bft) 0,00 h 3,1 km/h (1 Bft)
12.07.2010 14:00 27,2 C 22,0 C 5,2 UV-I 2,3 C 61 % 82 % 64 % 1016,4 hPa 0,0 l/m 4,1 km/h (1 Bft) 0,13 h 5,6 km/h (1 Bft)
12.07.2010 15:00 28,6 C 25,4 C 10,7 UV-I 5,3 C 58 % 68 % 100 % 1017,2 hPa 0,0 l/m 5,8 km/h (1 Bft) 0,70 h 6,0 km/h (2 Bft)
12.07.2010 16:00 30,1 C 27,1 C 8,2 UV-I 4,1 C 51 % 58 % 96 % 1017,6 hPa 0,0 l/m 4,5 km/h (1 Bft) 0,90 h 5,3 km/h (1 Bft)
12.07.2010 17:00 30,0 C 27,6 C 5,1 UV-I 2,2 C 50 % 53 % 62 % 1016,5 hPa 0,0 l/m 6,5 km/h (2 Bft) 0,27 h 8,3 km/h (2 Bft)
12.07.2010 18:00 29,3 C 26,3 C 2,5 UV-I 1,0 C 48 % 53 % 28 % 1014,8 hPa 0,0 l/m 10,0 km/h (2 Bft) 0,00 h 11,1 km/h (2 Bft)
12.07.2010 19:00 28,5 C 24,9 C 0,5 UV-I 0,0 C 49 % 59 % 0 % 1014,7 hPa 0,0 l/m 6,8 km/h (2 Bft) 0,00 h 7,6 km/h (2 Bft)
12.07.2010 20:00 27,8 C 23,9 C 0,2 UV-I 0,0 C 51 % 64 % 0 % 1014,9 hPa 0,0 l/m 5,9 km/h (2 Bft) 0,00 h 7,3 km/h (2 Bft)
12.07.2010 21:00 27,5 C 23,2 C 0,0 UV-I 0,0 C 53 % 68 % 0 % 1015,4 hPa 0,0 l/m 1,8 km/h (1 Bft) 0,00 h 1,7 km/h (1 Bft)
12.07.2010 22:00 27,2 C 22,6 C 0,0 UV-I 0,0 C 54 % 68 % 0 % 1015,9 hPa 0,0 l/m 0,6 km/h (0 Bft) 0,00 h 1,0 km/h (0 Bft)
12.07.2010 23:00 27,1 C 22,1 C 0,0 UV-I 0,0 C 54 % 69 % 0 % 1016,3 hPa 0,0 l/m 0,5 km/h (0 Bft) 0,00 h 1,3 km/h (1 Bft)
13.07.2010 00:00 26,9 C 21,2 C 0,0 UV-I 0,0 C 54 % 70 % 0 % 1016,1 hPa 0,0 l/m 0,5 km/h (0 Bft) 0,00 h 0,9 km/h (0 Bft)
13.07.2010 01:00 26,7 C 19,9 C 0,0 UV-I 0,0 C 54 % 75 % 0 % 1016,2 hPa 0,0 l/m 0,1 km/h (0 Bft) 0,00 h 0,0 km/h (0 Bft)
13.07.2010 02:00 26,4 C 18,7 C 0,0 UV-I 0,0 C 53 % 78 % 0 % 1016,2 hPa 0,0 l/m 0,0 km/h (0 Bft) 0,00 h 0,0 km/h (0 Bft)
13.07.2010 03:00 26,1 C 18,0 C 0,0 UV-I 0,0 C 54 % 81 % 0 % 1016,1 hPa 0,0 l/m 0,0 km/h (0 Bft) 0,00 h 0,0 km/h (0 Bft)
13.07.2010 04:00 25,8 C 17,3 C 0,0 UV-I 0,0 C 55 % 84 % 0 % 1015,5 hPa 0,0 l/m 0,0 km/h (0 Bft) 0,00 h 0,0 km/h (0 Bft)
13.07.2010 05:00 25,5 C 16,7 C 0,0 UV-I 0,0 C 56 % 86 % 0 % 1015,0 hPa 0,0 l/m 0,0 km/h (0 Bft) 0,00 h 0,0 km/h (0 Bft)
13.07.2010 06:00 25,4 C 17,0 C 0,1 UV-I 0,0 C 56 % 87 % 0 % 1015,2 hPa 0,0 l/m 0,0 km/h (0 Bft) 0,00 h 0,0 km/h (0 Bft)
13.07.2010 07:00 25,4 C 18,0 C 0,8 UV-I 0,2 C 56 % 85 % 6 % 1015,0 hPa 0,0 l/m 0,1 km/h (0 Bft) 0,00 h 0,3 km/h (0 Bft)
13.07.2010 08:00 25,6 C 19,4 C 1,6 UV-I 0,9 C 57 % 81 % 25 % 1015,2 hPa 0,0 l/m 1,7 km/h (1 Bft) 0,00 h 2,7 km/h (1 Bft)
13.07.2010 09:00 25,8 C 21,1 C 4,7 UV-I 2,4 C 56 % 76 % 63 % 1015,9 hPa 0,0 l/m 2,9 km/h (1 Bft) 0,40 h 4,8 km/h (1 Bft)
13.07.2010 10:00 25,9 C 23,7 C 15,0 UV-I 5,7 C 56 % 64 % 100 % 1015,7 hPa 0,0 l/m 5,0 km/h (1 Bft) 1,00 h 6,7 km/h (2 Bft)
13.07.2010 11:00 26,0 C 26,1 C 14,6 UV-I 5,4 C 53 % 51 % 100 % 1015,3 hPa 0,0 l/m 6,3 km/h (2 Bft) 0,90 h 7,1 km/h (2 Bft)
13.07.2010 12:00 26,3 C 27,7 C 10,3 UV-I 5,2 C 51 % 45 % 100 % 1014,6 hPa 0,0 l/m 6,1 km/h (2 Bft) 0,93 h 7,1 km/h (2 Bft)
13.07.2010 13:00 26,9 C 28,0 C 6,6 UV-I 2,8 C 50 % 47 % 72 % 1014,2 hPa 0,0 l/m 7,3 km/h (2 Bft) 0,40 h 9,9 km/h (2 Bft)
13.07.2010 14:00 27,6 C 28,4 C 6,9 UV-I 3,1 C 51 % 49 % 74 % 1014,7 hPa 0,0 l/m 5,4 km/h (1 Bft) 0,53 h 7,9 km/h (2 Bft)
13.07.2010 15:00 28,0 C 24,3 C 4,3 UV-I 1,8 C 53 % 69 % 39 % 1012,5 hPa 2,9 l/m 2,1 km/h (1 Bft) 0,27 h 4,1 km/h (1 Bft)
13.07.2010 16:00 28,4 C 24,8 C 5,7 UV-I 3,6 C 54 % 70 % 91 % 1012,5 hPa 0,0 l/m 1,4 km/h (1 Bft) 0,60 h 2,9 km/h (1 Bft)
13.07.2010 17:00 29,4 C 27,9 C 9,7 UV-I 5,1 C 51 % 55 % 100 % 1014,7 hPa 0,0 l/m 2,3 km/h (1 Bft) 0,63 h 4,1 km/h (1 Bft)
13.07.2010 18:00 29,8 C 28,3 C 3,4 UV-I 3,3 C 49 % 51 % 70 % 1016,4 hPa 0,0 l/m 2,2 km/h (1 Bft) 0,47 h 3,1 km/h (1 Bft)
13.07.2010 19:00 29,0 C 27,9 C 1,8 UV-I 0,5 C 50 % 52 % 13 % 1013,0 hPa 0,0 l/m 0,5 km/h (0 Bft) 0,00 h 1,5 km/h (1 Bft)
13.07.2010 20:00 28,4 C 27,5 C 0,1 UV-I 0,0 C 52 % 55 % 0 % 1012,5 hPa 0,0 l/m 2,0 km/h (1 Bft) 0,00 h 3,2 km/h (1 Bft)
13.07.2010 21:00 28,0 C 26,2 C 0,0 UV-I 0,0 C 53 % 59 % 0 % 1012,7 hPa 0,0 l/m 0,4 km/h (0 Bft) 0,00 h 0,6 km/h (0 Bft)
13.07.2010 22:00 27,5 C 24,0 C 0,0 UV-I 0,0 C 55 % 67 % 0 % 1012,5 hPa 0,0 l/m 0,0 km/h (0 Bft) 0,00 h 0,0 km/h (0 Bft)
13.07.2010 23:00 27,2 C 22,7 C 0,0 UV-I 0,0 C 56 % 74 % 0 % 1012,6 hPa 0,0 l/m 0,0 km/h (0 Bft) 0,00 h 0,0 km/h (0 Bft)
14.07.2010 00:00 27,0 C 22,0 C 0,0 UV-I 0,0 C 57 % 76 % 0 % 1012,3 hPa 0,0 l/m 0,2 km/h (0 Bft) 0,00 h 0,3 km/h (0 Bft)
14.07.2010 01:00 26,7 C 21,4 C 0,0 UV-I 0,0 C 57 % 73 % 0 % 1012,4 hPa 0,0 l/m 0,3 km/h (0 Bft) 0,00 h 0,8 km/h (0 Bft)
14.07.2010 02:00 26,5 C 20,8 C 0,0 UV-I 0,0 C 56 % 73 % 0 % 1012,3 hPa 0,0 l/m 0,0 km/h (0 Bft) 0,00 h 0,2 km/h (0 Bft)
14.07.2010 03:00 26,3 C 20,4 C 0,0 UV-I 0,0 C 56 % 74 % 0 % 1012,1 hPa 0,0 l/m 0,1 km/h (0 Bft) 0,00 h 0,0 km/h (0 Bft)
14.07.2010 04:00 26,1 C 19,8 C 0,0 UV-I 0,0 C 55 % 74 % 0 % 1012,1 hPa 0,0 l/m 0,0 km/h (0 Bft) 0,00 h 0,0 km/h (0 Bft)
14.07.2010 05:00 25,9 C 19,2 C 0,0 UV-I 0,0 C 55 % 76 % 0 % 1012,2 hPa 0,0 l/m 0,6 km/h (0 Bft) 0,00 h 1,3 km/h (1 Bft)
14.07.2010 06:00 25,8 C 19,0 C 0,2 UV-I 0,0 C 55 % 77 % 0 % 1012,1 hPa 0,0 l/m 0,7 km/h (0 Bft) 0,00 h 1,4 km/h (1 Bft)
14.07.2010 07:00 25,8 C 20,2 C 1,4 UV-I 0,0 C 55 % 75 % 0 % 1012,2 hPa 0,0 l/m 2,2 km/h (1 Bft) 0,00 h 5,2 km/h (1 Bft)
14.07.2010 08:00 25,8 C 22,4 C 3,1 UV-I 3,7 C 56 % 69 % 64 % 1012,3 hPa 0,0 l/m 2,6 km/h (1 Bft) 0,57 h 5,6 km/h (1 Bft)
14.07.2010 09:00 26,0 C 25,8 C 11,3 UV-I 6,6 C 54 % 57 % 100 % 1012,2 hPa 0,0 l/m 3,2 km/h (1 Bft) 0,93 h 6,5 km/h (2 Bft)
14.07.2010 10:00 26,2 C 27,4 C 16,8 UV-I 6,0 C 54 % 53 % 100 % 1012,1 hPa 0,0 l/m 5,3 km/h (1 Bft) 0,97 h 7,5 km/h (2 Bft)
14.07.2010 11:00 26,5 C 28,4 C 11,9 UV-I 4,8 C 54 % 50 % 99 % 1011,9 hPa 0,0 l/m 5,0 km/h (1 Bft) 0,90 h 7,9 km/h (2 Bft)
14.07.2010 12:00 27,0 C 28,8 C 8,1 UV-I 4,1 C 53 % 48 % 97 % 1011,6 hPa 0,0 l/m 4,3 km/h (1 Bft) 0,77 h 6,5 km/h (2 Bft)
14.07.2010 13:00 27,4 C 30,1 C 8,3 UV-I 3,5 C 53 % 46 % 95 % 1010,8 hPa 0,0 l/m 6,0 km/h (2 Bft) 0,77 h 8,4 km/h (2 Bft)
14.07.2010 14:00 28,4 C 32,1 C 9,8 UV-I 4,0 C 51 % 40 % 100 % 1010,0 hPa 0,0 l/m 9,1 km/h (2 Bft) 0,87 h 12,3 km/h (3 Bft)
14.07.2010 15:00 30,4 C 33,6 C 10,2 UV-I 3,4 C 46 % 35 % 95 % 1009,8 hPa 0,0 l/m 11,0 km/h (2 Bft) 0,97 h 14,7 km/h (3 Bft)
14.07.2010 16:00 31,8 C 34,4 C 12,0 UV-I 3,3 C 42 % 33 % 94 % 1008,9 hPa 0,0 l/m 10,8 km/h (2 Bft) 0,80 h 16,7 km/h (3 Bft)
14.07.2010 17:00 31,7 C 33,6 C 4,6 UV-I 0,8 C 41 % 35 % 22 % 1007,1 hPa 0,0 l/m 12,5 km/h (3 Bft) 0,10 h 16,5 km/h (3 Bft)
14.07.2010 18:00 30,2 C 25,5 C 0,0 UV-I 0,0 C 48 % 68 % 0 % 1006,0 hPa 10,6 l/m 13,5 km/h (3 Bft) 0,00 h 18,2 km/h (3 Bft)
14.07.2010 19:00 28,3 C 19,8 C 0,0 UV-I 0,0 C 54 % 89 % 0 % 1008,0 hPa 0,6 l/m 7,7 km/h (2 Bft) 0,00 h 10,0 km/h (2 Bft)
14.07.2010 20:00 27,5 C 19,3 C 0,0 UV-I 0,0 C 56 % 92 % 0 % 1008,0 hPa 0,0 l/m 2,0 km/h (1 Bft) 0,00 h 3,9 km/h (1 Bft)
14.07.2010 21:00 27,2 C 19,3 C 0,0 UV-I 0,0 C 57 % 93 % 0 % 1008,7 hPa 0,0 l/m 3,2 km/h (1 Bft) 0,00 h 5,3 km/h (1 Bft)
14.07.2010 22:00 27,0 C 19,2 C 0,0 UV-I 0,0 C 57 % 93 % 0 % 1009,4 hPa 0,0 l/m 1,7 km/h (1 Bft) 0,00 h 3,8 km/h (1 Bft)
14.07.2010 23:00 26,8 C 19,2 C 0,0 UV-I 0,0 C 58 % 93 % 0 % 1009,7 hPa 0,0 l/m 2,6 km/h (1 Bft) 0,00 h 5,6 km/h (1 Bft)
15.07.2010 00:00 26,6 C 18,7 C 0,0 UV-I 0,0 C 57 % 87 % 0 % 1010,4 hPa 0,0 l/m 4,9 km/h (1 Bft) 0,00 h 8,0 km/h (2 Bft)
15.07.2010 01:00 26,3 C 18,3 C 0,0 UV-I 0,0 C 56 % 83 % 0 % 1011,4 hPa 0,0 l/m 4,8 km/h (1 Bft) 0,00 h 6,4 km/h (2 Bft)
15.07.2010 02:00 26,1 C 18,6 C 0,0 UV-I 0,0 C 56 % 82 % 0 % 1011,6 hPa 0,0 l/m 3,8 km/h (1 Bft) 0,00 h 7,3 km/h (2 Bft)
15.07.2010 03:00 26,0 C 18,7 C 0,0 UV-I 0,0 C 56 % 81 % 0 % 1011,6 hPa 0,0 l/m 7,4 km/h (2 Bft) 0,00 h 12,3 km/h (3 Bft)
15.07.2010 04:00 25,8 C 18,7 C 0,0 UV-I 0,0 C 55 % 80 % 0 % 1011,8 hPa 0,0 l/m 9,6 km/h (2 Bft) 0,00 h 13,9 km/h (3 Bft)
15.07.2010 05:00 25,6 C 18,6 C 0,0 UV-I 0,0 C 55 % 79 % 0 % 1012,3 hPa 0,0 l/m 8,5 km/h (2 Bft) 0,00 h 11,2 km/h (2 Bft)
15.07.2010 06:00 25,3 C 18,5 C 0,2 UV-I 0,0 C 55 % 78 % 0 % 1012,9 hPa 0,0 l/m 6,4 km/h (2 Bft) 0,00 h 9,0 km/h (2 Bft)
15.07.2010 07:00 25,2 C 18,6 C 1,4 UV-I 0,0 C 55 % 76 % 0 % 1013,8 hPa 0,0 l/m 7,0 km/h (2 Bft) 0,00 h 9,7 km/h (2 Bft)
15.07.2010 08:00 25,4 C 19,2 C 2,5 UV-I 1,5 C 54 % 71 % 41 % 1014,6 hPa 0,0 l/m 10,5 km/h (2 Bft) 0,10 h 13,7 km/h (3 Bft)
15.07.2010 09:00 25,5 C 19,9 C 8,3 UV-I 3,3 C 52 % 65 % 89 % 1015,1 hPa 0,0 l/m 10,2 km/h (2 Bft) 0,67 h 12,7 km/h (3 Bft)
15.07.2010 10:00 25,5 C 20,9 C 13,2 UV-I 4,2 C 50 % 59 % 100 % 1015,4 hPa 0,0 l/m 11,9 km/h (2 Bft) 0,97 h 17,2 km/h (3 Bft)
15.07.2010 11:00 25,5 C 21,3 C 9,4 UV-I 3,1 C 49 % 56 % 80 % 1015,9 hPa 0,0 l/m 10,9 km/h (2 Bft) 0,47 h 15,8 km/h (3 Bft)
15.07.2010 12:00 25,7 C 21,8 C 6,4 UV-I 2,4 C 48 % 53 % 68 % 1016,3 hPa 0,0 l/m 10,2 km/h (2 Bft) 0,27 h 14,4 km/h (3 Bft)
15.07.2010 13:00 25,9 C 22,8 C 7,9 UV-I 3,3 C 46 % 46 % 89 % 1016,7 hPa 0,0 l/m 12,7 km/h (3 Bft) 0,70 h 16,8 km/h (3 Bft)
15.07.2010 14:00 26,7 C 24,0 C 8,4 UV-I 3,7 C 43 % 42 % 99 % 1017,5 hPa 0,0 l/m 11,6 km/h (2 Bft) 0,97 h 15,2 km/h (3 Bft)
15.07.2010 15:00 28,4 C 24,8 C 9,4 UV-I 4,1 C 40 % 41 % 100 % 1019,2 hPa 0,0 l/m 9,8 km/h (2 Bft) 1,00 h 12,4 km/h (3 Bft)
15.07.2010 16:00 29,6 C 25,0 C 9,7 UV-I 3,3 C 37 % 39 % 86 % 1020,4 hPa 0,0 l/m 9,9 km/h (2 Bft) 0,57 h 13,7 km/h (3 Bft)
15.07.2010 17:00 29,7 C 25,1 C 8,4 UV-I 3,1 C 37 % 39 % 86 % 1019,9 hPa 0,0 l/m 8,7 km/h (2 Bft) 0,70 h 11,3 km/h (2 Bft)
15.07.2010 18:00 29,0 C 24,3 C 2,7 UV-I 1,5 C 38 % 40 % 43 % 1018,5 hPa 0,0 l/m 7,2 km/h (2 Bft) 0,07 h 9,8 km/h (2 Bft)
15.07.2010 19:00 28,0 C 24,0 C 2,1 UV-I 0,0 C 39 % 39 % 1 % 1017,6 hPa 0,0 l/m 6,2 km/h (2 Bft) 0,00 h 9,6 km/h (2 Bft)
15.07.2010 20:00 27,1 C 23,1 C 0,7 UV-I 0,0 C 39 % 42 % 0 % 1017,5 hPa 0,0 l/m 2,9 km/h (1 Bft) 0,00 h 4,2 km/h (1 Bft)
15.07.2010 21:00 26,6 C 21,6 C 0,0 UV-I 0,0 C 40 % 48 % 0 % 1017,6 hPa 0,0 l/m 0,1 km/h (0 Bft) 0,00 h 0,2 km/h (0 Bft)
15.07.2010 22:00 26,2 C 20,0 C 0,0 UV-I 0,0 C 42 % 56 % 0 % 1017,9 hPa 0,0 l/m 0,1 km/h (0 Bft) 0,00 h 0,2 km/h (0 Bft)
15.07.2010 23:00 25,8 C 18,6 C 0,0 UV-I 0,0 C 43 % 61 % 0 % 1017,8 hPa 0,0 l/m 0,5 km/h (0 Bft) 0,00 h 1,1 km/h (1 Bft)
16.07.2010 00:00 25,4 C 17,5 C 0,0 UV-I 0,0 C 44 % 65 % 0 % 1017,9 hPa 0,0 l/m 0,2 km/h (0 Bft) 0,00 h 0,8 km/h (0 Bft)
16.07.2010 01:00 25,1 C 17,0 C 0,0 UV-I 0,0 C 45 % 66 % 0 % 1017,7 hPa 0,0 l/m 0,6 km/h (0 Bft) 0,00 h 1,5 km/h (1 Bft)
16.07.2010 02:00 24,8 C 16,7 C 0,0 UV-I 0,0 C 45 % 68 % 0 % 1017,6 hPa 0,0 l/m 2,1 km/h (1 Bft) 0,00 h 4,5 km/h (1 Bft)
16.07.2010 03:00 24,6 C 16,3 C 0,0 UV-I 0,0 C 45 % 69 % 0 % 1017,7 hPa 0,0 l/m 3,1 km/h (1 Bft) 0,00 h 5,1 km/h (1 Bft)
16.07.2010 04:00 24,4 C 15,8 C 0,0 UV-I 0,0 C 45 % 71 % 0 % 1017,2 hPa 0,0 l/m 3,1 km/h (1 Bft) 0,00 h 5,4 km/h (1 Bft)
16.07.2010 05:00 24,1 C 15,4 C 0,0 UV-I 0,0 C 46 % 72 % 0 % 1016,8 hPa 0,0 l/m 3,0 km/h (1 Bft) 0,00 h 5,6 km/h (1 Bft)
16.07.2010 06:00 24,0 C 15,5 C 0,1 UV-I 0,0 C 46 % 72 % 0 % 1016,9 hPa 0,0 l/m 3,7 km/h (1 Bft) 0,00 h 6,4 km/h (2 Bft)
16.07.2010 07:00 24,0 C 17,0 C 1,6 UV-I 0,0 C 47 % 69 % 0 % 1016,7 hPa 0,0 l/m 5,2 km/h (1 Bft) 0,00 h 7,9 km/h (2 Bft)
16.07.2010 08:00 23,9 C 19,9 C 3,3 UV-I 3,0 C 47 % 60 % 63 % 1016,9 hPa 0,0 l/m 8,1 km/h (2 Bft) 0,57 h 11,9 km/h (2 Bft)
16.07.2010 09:00 24,1 C 23,1 C 11,7 UV-I 5,2 C 47 % 51 % 100 % 1017,0 hPa 0,0 l/m 9,0 km/h (2 Bft) 0,97 h 13,5 km/h (3 Bft)
16.07.2010 10:00 24,4 C 25,1 C 16,8 UV-I 5,0 C 46 % 45 % 100 % 1017,0 hPa 0,0 l/m 9,9 km/h (2 Bft) 1,00 h 13,7 km/h (3 Bft)
16.07.2010 11:00 24,8 C 26,5 C 14,4 UV-I 4,8 C 45 % 41 % 100 % 1017,0 hPa 0,0 l/m 10,1 km/h (2 Bft) 1,00 h 13,4 km/h (3 Bft)
16.07.2010 12:00 25,3 C 27,8 C 9,5 UV-I 4,8 C 45 % 40 % 100 % 1017,1 hPa 0,0 l/m 8,0 km/h (2 Bft) 0,93 h 11,4 km/h (2 Bft)
16.07.2010 13:00 26,0 C 28,8 C 8,6 UV-I 4,4 C 45 % 39 % 100 % 1017,3 hPa 0,0 l/m 8,8 km/h (2 Bft) 0,97 h 11,3 km/h (2 Bft)
16.07.2010 14:00 27,1 C 29,4 C 8,5 UV-I 3,5 C 45 % 39 % 94 % 1017,8 hPa 0,0 l/m 9,0 km/h (2 Bft) 0,90 h 13,8 km/h (3 Bft)
16.07.2010 15:00 29,0 C 30,3 C 9,6 UV-I 3,9 C 42 % 38 % 100 % 1019,4 hPa 0,0 l/m 8,7 km/h (2 Bft) 0,97 h 11,7 km/h (2 Bft)
16.07.2010 16:00 29,9 C 30,2 C 9,2 UV-I 3,1 C 41 % 39 % 86 % 1019,8 hPa 0,0 l/m 7,8 km/h (2 Bft) 0,60 h 11,7 km/h (2 Bft)
16.07.2010 17:00 30,3 C 30,3 C 9,1 UV-I 3,2 C 40 % 38 % 90 % 1019,2 hPa 0,0 l/m 8,6 km/h (2 Bft) 0,67 h 12,1 km/h (2 Bft)
16.07.2010 18:00 30,1 C 29,8 C 3,7 UV-I 2,0 C 40 % 41 % 56 % 1018,9 hPa 0,0 l/m 6,2 km/h (2 Bft) 0,27 h 7,6 km/h (2 Bft)
16.07.2010 19:00 29,1 C 29,0 C 2,3 UV-I 0,0 C 42 % 44 % 1 % 1018,0 hPa 0,0 l/m 4,2 km/h (1 Bft) 0,00 h 6,4 km/h (2 Bft)
16.07.2010 20:00 28,4 C 27,8 C 0,8 UV-I 0,0 C 44 % 48 % 0 % 1017,7 hPa 0,0 l/m 3,5 km/h (1 Bft) 0,00 h 6,3 km/h (2 Bft)
16.07.2010 21:00 27,7 C 23,6 C 0,0 UV-I 0,0 C 48 % 67 % 0 % 1018,3 hPa 12,3 l/m 6,8 km/h (2 Bft) 0,00 h 9,8 km/h (2 Bft)
16.07.2010 22:00 26,9 C 18,9 C 0,0 UV-I 0,0 C 53 % 86 % 0 % 1019,6 hPa 0,0 l/m 2,4 km/h (1 Bft) 0,00 h 3,7 km/h (1 Bft)
16.07.2010 23:00 26,3 C 18,5 C 0,0 UV-I 0,0 C 56 % 91 % 0 % 1020,3 hPa 0,8 l/m 1,0 km/h (0 Bft) 0,00 h 1,3 km/h (1 Bft)
17.07.2010 00:00 26,0 C 18,6 C 0,0 UV-I 0,0 C 59 % 92 % 0 % 1020,5 hPa 0,0 l/m 1,2 km/h (1 Bft) 0,00 h 3,5 km/h (1 Bft)
17.07.2010 01:00 25,8 C 18,3 C 0,0 UV-I 0,0 C 60 % 93 % 0 % 1020,7 hPa 0,0 l/m 0,4 km/h (0 Bft) 0,00 h 1,7 km/h (1 Bft)
17.07.2010 02:00 25,5 C 17,9 C 0,0 UV-I 0,0 C 60 % 93 % 0 % 1020,6 hPa 0,0 l/m 0,3 km/h (0 Bft) 0,00 h 0,7 km/h (0 Bft)
17.07.2010 03:00 25,3 C 17,2 C 0,0 UV-I 0,0 C 60 % 93 % 0 % 1020,2 hPa 0,0 l/m 0,0 km/h (0 Bft) 0,00 h 0,0 km/h (0 Bft)
17.07.2010 04:00 25,1 C 16,5 C 0,0 UV-I 0,0 C 59 % 94 % 0 % 1020,5 hPa 0,1 l/m 0,0 km/h (0 Bft) 0,00 h 0,0 km/h (0 Bft)
17.07.2010 05:00 24,8 C 15,9 C 0,0 UV-I 0,0 C 59 % 94 % 0 % 1020,5 hPa 0,0 l/m 0,0 km/h (0 Bft) 0,00 h 0,0 km/h (0 Bft)
17.07.2010 06:00 24,5 C 15,7 C 0,3 UV-I 0,0 C 59 % 94 % 0 % 1020,1 hPa 0,0 l/m 0,1 km/h (0 Bft) 0,00 h 0,2 km/h (0 Bft)
17.07.2010 07:00 24,5 C 16,4 C 1,3 UV-I 0,0 C 59 % 95 % 0 % 1020,3 hPa 0,0 l/m 0,8 km/h (0 Bft) 0,00 h 2,3 km/h (1 Bft)
17.07.2010 08:00 24,4 C 17,7 C 3,5 UV-I 3,3 C 59 % 91 % 61 % 1020,8 hPa 0,0 l/m 2,8 km/h (1 Bft) 0,47 h 5,0 km/h (1 Bft)
17.07.2010 09:00 24,5 C 19,0 C 5,8 UV-I 4,8 C 58 % 84 % 90 % 1021,7 hPa 0,0 l/m 3,5 km/h (1 Bft) 0,63 h 5,6 km/h (1 Bft)
17.07.2010 10:00 24,6 C 19,8 C 11,2 UV-I 5,3 C 56 % 78 % 100 % 1022,0 hPa 0,0 l/m 3,8 km/h (1 Bft) 0,53 h 7,2 km/h (2 Bft)
17.07.2010 11:00 24,8 C 20,8 C 9,9 UV-I 5,1 C 56 % 72 % 100 % 1022,5 hPa 0,0 l/m 5,6 km/h (1 Bft) 0,60 h 9,3 km/h (2 Bft)
17.07.2010 12:00 25,0 C 21,2 C 7,6 UV-I 3,6 C 55 % 69 % 87 % 1022,8 hPa 0,0 l/m 6,8 km/h (2 Bft) 0,27 h 7,3 km/h (2 Bft)
17.07.2010 13:00 25,4 C 21,1 C 7,9 UV-I 3,6 C 53 % 69 % 85 % 1023,6 hPa 0,0 l/m 7,3 km/h (2 Bft) 0,27 h 6,8 km/h (2 Bft)
17.07.2010 14:00 26,1 C 21,7 C 8,9 UV-I 4,2 C 52 % 64 % 97 % 1024,2 hPa 0,0 l/m 6,9 km/h (2 Bft) 0,37 h 6,4 km/h (2 Bft)
17.07.2010 15:00 27,4 C 23,0 C 9,0 UV-I 4,0 C 46 % 54 % 100 % 1025,6 hPa 0,0 l/m 7,3 km/h (2 Bft) 0,40 h 8,8 km/h (2 Bft)
17.07.2010 16:00 27,5 C 22,5 C 5,8 UV-I 2,1 C 44 % 54 % 60 % 1025,1 hPa 0,0 l/m 5,8 km/h (2 Bft) 0,03 h 6,6 km/h (2 Bft)
17.07.2010 17:00 27,2 C 22,8 C 5,8 UV-I 2,9 C 45 % 53 % 78 % 1025,1 hPa 0,0 l/m 7,5 km/h (2 Bft) 0,13 h 9,9 km/h (2 Bft)
17.07.2010 18:00 27,2 C 22,5 C 3,6 UV-I 1,7 C 44 % 51 % 50 % 1025,1 hPa 0,0 l/m 7,1 km/h (2 Bft) 0,10 h 8,4 km/h (2 Bft)
17.07.2010 19:00 26,6 C 22,1 C 2,5 UV-I 0,0 C 43 % 49 % 1 % 1025,0 hPa 0,0 l/m 6,2 km/h (2 Bft) 0,00 h 7,5 km/h (2 Bft)
17.07.2010 20:00 25,9 C 21,0 C 1,3 UV-I 0,0 C 42 % 48 % 0 % 1025,3 hPa 0,0 l/m 3,5 km/h (1 Bft) 0,00 h 4,1 km/h (1 Bft)
17.07.2010 21:00 25,5 C 19,4 C 0,2 UV-I 0,0 C 43 % 54 % 0 % 1026,0 hPa 0,0 l/m 1,3 km/h (1 Bft) 0,00 h 1,3 km/h (1 Bft)
17.07.2010 22:00 25,2 C 17,9 C 0,0 UV-I 0,0 C 45 % 63 % 0 % 1027,1 hPa 0,0 l/m 1,1 km/h (0 Bft) 0,00 h 1,7 km/h (1 Bft)
17.07.2010 23:00 24,8 C 16,1 C 0,0 UV-I 0,0 C 46 % 71 % 0 % 1027,9 hPa 0,0 l/m 0,0 km/h (0 Bft) 0,00 h 0,0 km/h (0 Bft)
18.07.2010 00:00 24,4 C 15,0 C 0,0 UV-I 0,0 C 48 % 78 % 0 % 1028,6 hPa 0,0 l/m 0,0 km/h (0 Bft) 0,00 h 0,0 km/h (0 Bft)
18.07.2010 01:00 24,1 C 14,7 C 0,0 UV-I 0,0 C 49 % 79 % 0 % 1029,2 hPa 0,0 l/m 0,0 km/h (0 Bft) 0,00 h 0,2 km/h (0 Bft)
18.07.2010 02:00 23,7 C 14,6 C 0,0 UV-I 0,0 C 49 % 80 % 0 % 1029,4 hPa 0,0 l/m 0,1 km/h (0 Bft) 0,00 h 0,8 km/h (0 Bft)
18.07.2010 03:00 23,4 C 13,9 C 0,0 UV-I 0,0 C 50 % 82 % 0 % 1029,5 hPa 0,0 l/m 0,0 km/h (0 Bft) 0,00 h 0,0 km/h (0 Bft)
18.07.2010 04:00 23,2 C 13,0 C 0,0 UV-I 0,0 C 50 % 85 % 0 % 1029,5 hPa 0,0 l/m 0,0 km/h (0 Bft) 0,00 h 0,0 km/h (0 Bft)
18.07.2010 05:00 23,0 C 12,3 C 0,1 UV-I 0,0 C 50 % 87 % 0 % 1029,8 hPa 0,0 l/m 0,0 km/h (0 Bft) 0,00 h 0,0 km/h (0 Bft)
18.07.2010 06:00 22,9 C 12,2 C 0,7 UV-I 0,0 C 50 % 87 % 0 % 1029,8 hPa 0,0 l/m 0,0 km/h (0 Bft) 0,00 h 0,0 km/h (0 Bft)
18.07.2010 07:00 22,8 C 13,2 C 1,8 UV-I 0,0 C 50 % 85 % 0 % 1030,2 hPa 0,0 l/m 0,2 km/h (0 Bft) 0,00 h 0,0 km/h (0 Bft)
18.07.2010 08:00 22,7 C 15,0 C 3,4 UV-I 4,0 C 50 % 79 % 63 % 1030,7 hPa 0,0 l/m 1,1 km/h (0 Bft) 0,23 h 1,1 km/h (1 Bft)
18.07.2010 09:00 22,9 C 17,6 C 10,9 UV-I 7,8 C 49 % 69 % 100 % 1030,9 hPa 0,0 l/m 1,9 km/h (1 Bft) 0,40 h 3,6 km/h (1 Bft)
18.07.2010 10:00 23,1 C 19,6 C 14,6 UV-I 7,0 C 49 % 62 % 100 % 1031,2 hPa 0,0 l/m 3,3 km/h (1 Bft) 0,40 h 4,0 km/h (1 Bft)
18.07.2010 11:00 23,4 C 21,1 C 15,0 UV-I 7,4 C 48 % 54 % 100 % 1031,3 hPa 0,0 l/m 4,4 km/h (1 Bft) 0,40 h 6,7 km/h (2 Bft)
18.07.2010 12:00 23,8 C 22,0 C 10,7 UV-I 7,5 C 47 % 50 % 100 % 1031,3 hPa 0,0 l/m 5,7 km/h (1 Bft) 0,40 h 6,1 km/h (2 Bft)
18.07.2010 13:00 24,6 C 23,0 C 9,1 UV-I 6,2 C 46 % 45 % 100 % 1031,5 hPa 0,0 l/m 3,7 km/h (1 Bft) 0,40 h 5,7 km/h (1 Bft)
18.07.2010 14:00 25,8 C 23,9 C 8,5 UV-I 4,6 C 44 % 41 % 100 % 1031,7 hPa 0,0 l/m 5,2 km/h (1 Bft) 0,40 h 5,9 km/h (2 Bft)
18.07.2010 15:00 27,6 C 24,4 C 9,5 UV-I 5,4 C 39 % 38 % 100 % 1032,9 hPa 0,0 l/m 4,8 km/h (1 Bft) 0,40 h 4,7 km/h (1 Bft)
18.07.2010 16:00 29,2 C 25,4 C 12,6 UV-I 5,1 C 35 % 34 % 100 % 1034,1 hPa 0,0 l/m 4,3 km/h (1 Bft) 0,40 h 3,8 km/h (1 Bft)
18.07.2010 17:00 29,7 C 25,3 C 10,6 UV-I 5,0 C 34 % 34 % 100 % 1033,2 hPa 0,0 l/m 5,4 km/h (1 Bft) 0,40 h 4,4 km/h (1 Bft)
18.07.2010 18:00 29,0 C 24,7 C 3,0 UV-I 3,3 C 34 % 35 % 73 % 1030,8 hPa 0,0 l/m 2,2 km/h (1 Bft) 0,23 h 3,2 km/h (1 Bft)
18.07.2010 19:00 27,7 C 24,0 C 1,8 UV-I 0,0 C 36 % 37 % 0 % 1029,1 hPa 0,0 l/m 3,8 km/h (1 Bft) 0,00 h 4,6 km/h (1 Bft)
18.07.2010 20:00 26,9 C 23,1 C 0,5 UV-I 0,0 C 38 % 41 % 0 % 1028,8 hPa 0,0 l/m 3,2 km/h (1 Bft) 0,00 h 2,2 km/h (1 Bft)
18.07.2010 21:00 26,3 C 21,3 C 0,0 UV-I 0,0 C 40 % 48 % 0 % 1028,3 hPa 0,0 l/m 0,8 km/h (0 Bft) 0,00 h 0,4 km/h (0 Bft)
18.07.2010 22:00 25,9 C 19,2 C 0,0 UV-I 0,0 C 42 % 58 % 0 % 1028,8 hPa 0,0 l/m 0,0 km/h (0 Bft) 0,00 h 0,0 km/h (0 Bft)
18.07.2010 23:00 25,4 C 17,4 C 0,0 UV-I 0,0 C 43 % 66 % 0 % 1028,9 hPa 0,0 l/m 0,0 km/h (0 Bft) 0,00 h 0,0 km/h (0 Bft)
Min-Datum _ 18.07.10 18.07.10 12.07.10 12.07.10 18.07.10 14.07.10 12.07.10 14.07.10 - 12.07.10 - 12.07.10
_ Min-Zeit 07:48 05:38 00:00 00:00 16:53 16:40 00:00 18:10 - 02:46 - 01:00
Minimum _ 22,7 C 12,1 C 0,0 UV-I 0,0 C 34 % 31 % 0 % 1003,8 hPa - 0,0 km/h (0 Bft) - 0,0 km/h (0 Bft)
Max-Datum _ 14.07.10 14.07.10 16.07.10 18.07.10 12.07.10 17.07.10 12.07.10 18.07.10 16.07.10 12.07.10 12.07.10 12.07.10
_ Max-Zeit 17:02 16:54 10:16 09:28 09:12 06:52 08:30 16:08 21:46 12:02 08:28 12:00
Maximum _ 32,2 C 34,9 C 17,8 UV-I 8,1 C 61 % 95 % 100 % 1034,8 hPa 12,3 l/m 33,3 km/h
W-SW (5 Bft)
0,03 h 62,4 km/h
W-SW (8 Bft)
Durchschnitt _ 26,6 C 22,0 C 3,9 UV-I 1,7 C 50 % 65 % 37 % 1018,4 hPa #28,4 l/m 4,2 km/h (1 Bft) #42:10 h 5,7 km/h (1 Bft)
© 2012 W. Hausmann